Wortham, Mississippi
Current Conditions -  °F | °C
As of 9:53 AM on Friday 31 Oct 2014 (Local Time) from KGPT Reporting Station
Clear Clear  
Wind Chill: 64°   Ceiling: Unl
Heat Index: 64°   Visibility: 10mi
Dew Point: 47°   Wind: 5mph
Humidity: 54%   Direction: 280°W
Pressure: 30.04"   Gusts: NA
Location:  30.603°N, 89.0932°W
Report Text: KGPT 311453Z 28004KT 10SM CLR 18/08 A3004 RMK AO2 SLP172 T01780083 50005
Loading
Personal Weather Stations






























Interactive Weather Map
Tropical Storm Tracking
New forecast layout! Learn more

10-Day Weather Forecast

Advertisements
Track Severe Weather on mobile